createdAt,value
2024-01-09T00:01:23.996Z,15.75
2024-01-09T00:03:50.977Z,16.20
2024-01-09T00:06:18.225Z,17.60
2024-01-09T00:08:45.494Z,17.70
2024-01-09T00:11:13.205Z,15.45
2024-01-09T00:13:40.505Z,16.73
2024-01-09T00:16:07.677Z,16.40
2024-01-09T00:18:34.825Z,17.00
2024-01-09T00:21:02.805Z,16.75
2024-01-09T00:23:31.029Z,17.10
2024-01-09T00:25:58.054Z,17.95
2024-01-09T00:28:25.186Z,17.77
2024-01-09T00:30:53.300Z,16.13
2024-01-09T00:33:20.408Z,17.13
2024-01-09T00:35:47.608Z,17.35
2024-01-09T00:38:14.674Z,17.77
2024-01-09T00:40:42.645Z,16.38
2024-01-09T00:43:09.618Z,16.38
2024-01-09T00:45:39.176Z,17.52
2024-01-09T00:48:07.519Z,17.58
2024-01-09T00:50:34.953Z,17.85
2024-01-09T00:53:02.175Z,17.38
2024-01-09T00:55:29.171Z,16.08
2024-01-09T00:57:56.189Z,16.58
2024-01-09T01:00:24.800Z,17.08
2024-01-09T01:02:51.771Z,16.63
2024-01-09T01:05:19.152Z,16.85
2024-01-09T01:07:46.232Z,16.27
2024-01-09T01:10:18.408Z,16.63
2024-01-09T01:12:47.519Z,15.90
2024-01-09T01:15:15.341Z,16.58
2024-01-09T01:17:42.617Z,18.52
2024-01-09T01:20:10.410Z,15.57
2024-01-09T01:22:37.452Z,17.58
2024-01-09T01:25:04.596Z,17.30
2024-01-09T01:27:31.576Z,17.63
2024-01-09T01:29:58.643Z,17.90
2024-01-09T01:32:25.759Z,16.90
2024-01-09T01:34:52.861Z,17.73
2024-01-09T01:37:19.848Z,17.48
2024-01-09T01:39:46.880Z,16.75
2024-01-09T01:42:13.904Z,17.25
2024-01-09T01:44:40.977Z,17.27
2024-01-09T01:47:08.038Z,17.88
2024-01-09T01:49:36.202Z,17.08
2024-01-09T01:52:03.345Z,16.42
2024-01-09T01:54:31.753Z,16.92
2024-01-09T01:56:59.933Z,17.27
2024-01-09T01:59:27.223Z,16.55
2024-01-09T02:01:54.262Z,15.50
2024-01-09T02:04:22.078Z,15.63
2024-01-09T02:06:49.163Z,15.77
2024-01-09T02:09:16.763Z,15.63
2024-01-09T02:11:43.907Z,16.20
2024-01-09T02:14:11.086Z,15.48
2024-01-09T02:16:38.025Z,16.83
2024-01-09T02:19:05.107Z,15.15
2024-01-09T02:21:32.127Z,17.05
2024-01-09T02:23:59.041Z,16.10
2024-01-09T02:29:02.742Z,17.08
2024-01-09T02:31:29.865Z,17.02
2024-01-09T02:33:59.281Z,15.45
2024-01-09T02:36:26.463Z,16.77
2024-01-09T02:38:55.906Z,17.02
2024-01-09T02:41:24.016Z,17.05
2024-01-09T02:43:50.931Z,15.00
2024-01-09T02:46:17.980Z,15.27
2024-01-09T02:48:44.945Z,17.20
2024-01-09T02:51:13.550Z,15.18
2024-01-09T02:53:41.097Z,16.63
2024-01-09T02:56:10.778Z,16.40
2024-01-09T02:58:37.755Z,15.88
2024-01-09T03:01:04.949Z,16.85
2024-01-09T03:03:32.436Z,15.32
2024-01-09T03:05:59.510Z,15.70
2024-01-09T03:08:26.663Z,16.10
2024-01-09T03:10:53.658Z,15.70
2024-01-09T03:13:20.564Z,16.52
2024-01-09T03:15:47.555Z,16.00
2024-01-09T03:18:15.311Z,16.92
2024-01-09T03:20:42.363Z,16.15
2024-01-09T03:23:09.452Z,15.82
2024-01-09T03:25:36.402Z,16.90
2024-01-09T03:28:03.350Z,16.88
2024-01-09T03:30:32.210Z,16.35
2024-01-09T03:32:59.215Z,16.00
2024-01-09T03:35:28.933Z,15.48
2024-01-09T03:37:56.848Z,16.33
2024-01-09T03:40:23.840Z,15.95
2024-01-09T03:42:50.936Z,16.27
2024-01-09T03:45:17.917Z,14.38
2024-01-09T03:47:44.937Z,14.95
2024-01-09T03:50:12.217Z,17.00
2024-01-09T03:52:39.223Z,16.30
2024-01-09T03:55:06.461Z,17.13
2024-01-09T03:57:33.398Z,15.73
2024-01-09T04:00:00.462Z,15.18
2024-01-09T04:02:28.072Z,15.95
2024-01-09T04:04:55.108Z,14.45
2024-01-09T04:07:22.121Z,14.50
2024-01-09T04:09:49.107Z,13.23
2024-01-09T04:12:16.377Z,15.30
2024-01-09T04:14:43.409Z,14.20
2024-01-09T04:17:10.443Z,14.32
2024-01-09T04:19:40.561Z,14.27
2024-01-09T04:22:07.963Z,13.93
2024-01-09T04:24:35.825Z,15.65
2024-01-09T04:27:05.837Z,14.68
2024-01-09T04:29:32.898Z,14.77
2024-01-09T04:32:00.049Z,15.43
2024-01-09T04:34:29.611Z,15.50
2024-01-09T04:36:56.687Z,14.35
2024-01-09T04:39:23.706Z,14.48
2024-01-09T04:41:50.744Z,14.82
2024-01-09T04:44:17.762Z,15.07
2024-01-09T04:46:44.769Z,13.85
2024-01-09T04:49:13.077Z,14.68
2024-01-09T04:51:40.560Z,15.63
2024-01-09T04:54:07.522Z,14.57
2024-01-09T04:56:34.793Z,15.05
2024-01-09T04:59:01.833Z,13.50
2024-01-09T05:01:29.656Z,13.82
2024-01-09T05:03:58.312Z,12.93
2024-01-09T05:06:25.583Z,14.25
2024-01-09T05:08:52.678Z,13.57
2024-01-09T05:11:20.149Z,15.65
2024-01-09T05:13:47.878Z,14.73
2024-01-09T05:16:15.123Z,14.82
2024-01-09T05:18:42.492Z,16.10
2024-01-09T05:21:10.186Z,16.25
2024-01-09T05:23:37.237Z,14.57
2024-01-09T05:26:05.066Z,15.27
2024-01-09T05:28:32.144Z,16.20
2024-01-09T05:30:59.252Z,15.43
2024-01-09T05:33:26.474Z,15.60
2024-01-09T05:35:53.672Z,16.88
2024-01-09T05:38:20.710Z,15.48
2024-01-09T05:40:48.025Z,16.35
2024-01-09T05:43:15.129Z,15.18
2024-01-09T05:45:42.086Z,16.27
2024-01-09T05:48:09.411Z,14.98
2024-01-09T05:50:36.796Z,15.18
2024-01-09T05:53:04.147Z,16.23
2024-01-09T05:55:31.160Z,16.50
2024-01-09T05:57:58.275Z,15.32
2024-01-09T06:00:25.247Z,15.80
2024-01-09T06:02:52.799Z,15.60
2024-01-09T06:05:20.150Z,17.13
2024-01-09T06:07:47.391Z,17.30
2024-01-09T06:10:14.395Z,16.60
2024-01-09T06:12:41.410Z,17.25
2024-01-09T06:15:08.898Z,15.57
2024-01-09T06:17:36.072Z,16.08
2024-01-09T06:20:03.348Z,14.32
2024-01-09T06:22:31.798Z,14.45
2024-01-09T06:24:58.803Z,14.70
2024-01-09T06:27:25.800Z,14.32
2024-01-09T06:29:52.785Z,15.70
2024-01-09T06:32:19.816Z,14.00
2024-01-09T06:34:46.972Z,14.25
2024-01-09T06:37:13.973Z,17.30
2024-01-09T06:39:40.904Z,16.52
2024-01-09T06:42:07.973Z,15.65
2024-01-09T06:44:34.983Z,18.50
2024-01-09T06:47:02.021Z,16.85
2024-01-09T06:49:29.093Z,19.52
2024-01-09T06:51:56.062Z,18.38
2024-01-09T06:54:23.021Z,22.70
2024-01-09T06:56:50.125Z,24.65
2024-01-09T06:59:19.286Z,18.35
2024-01-09T07:01:47.343Z,23.38
2024-01-09T07:04:15.294Z,22.92
2024-01-09T07:06:43.872Z,24.23
2024-01-09T07:09:11.334Z,18.05
2024-01-09T07:11:38.387Z,18.17
2024-01-09T07:14:05.640Z,22.92
2024-01-09T07:16:32.678Z,17.10
2024-01-09T07:18:59.899Z,18.17
2024-01-09T07:21:28.022Z,18.38
2024-01-09T07:23:56.162Z,19.02
2024-01-09T07:26:23.218Z,16.60
2024-01-09T07:28:51.040Z,22.85
2024-01-09T07:31:18.034Z,23.52
2024-01-09T07:33:46.503Z,22.60
2024-01-09T07:36:13.503Z,20.60
2024-01-09T07:38:41.976Z,17.38
2024-01-09T07:41:09.018Z,18.42
2024-01-09T07:43:37.148Z,18.13
2024-01-09T07:46:04.704Z,17.92
2024-01-09T07:48:32.277Z,18.88
2024-01-09T07:51:07.097Z,16.25
2024-01-09T07:53:34.240Z,18.30
2024-01-09T07:56:02.489Z,17.98
2024-01-09T07:58:29.532Z,18.77
2024-01-09T08:00:56.634Z,19.48
2024-01-09T08:03:23.957Z,19.35
2024-01-09T08:05:51.787Z,18.83
2024-01-09T08:08:19.168Z,17.95
2024-01-09T08:10:47.450Z,20.13
2024-01-09T08:13:14.406Z,18.17
2024-01-09T08:15:42.444Z,18.13
2024-01-09T08:18:09.467Z,18.77
2024-01-09T08:20:36.590Z,19.30
2024-01-09T08:23:04.007Z,20.33
2024-01-09T08:25:31.088Z,17.95
2024-01-09T08:27:57.996Z,18.85
2024-01-09T08:30:25.032Z,20.30
2024-01-09T08:32:56.182Z,22.90
2024-01-09T08:35:23.345Z,21.27
2024-01-09T08:37:51.584Z,21.05
2024-01-09T08:40:18.512Z,22.80
2024-01-09T08:42:45.504Z,30.83
2024-01-09T08:45:12.871Z,18.33
2024-01-09T08:47:39.942Z,20.92
2024-01-09T08:50:07.314Z,19.60
2024-01-09T08:52:35.853Z,19.50
2024-01-09T08:55:04.382Z,18.80
2024-01-09T08:57:31.752Z,22.08
2024-01-09T08:59:59.580Z,27.50
2024-01-09T09:02:26.694Z,26.33
2024-01-09T09:04:53.757Z,30.23
2024-01-09T09:07:20.791Z,35.05
2024-01-09T09:09:47.824Z,26.60
2024-01-09T09:12:15.375Z,32.25
2024-01-09T09:14:42.503Z,22.88
2024-01-09T09:17:11.888Z,21.83
2024-01-09T09:19:39.149Z,27.48
2024-01-09T09:22:07.235Z,26.27
2024-01-09T09:24:34.668Z,35.78
2024-01-09T09:27:01.755Z,25.65
2024-01-09T09:29:37.387Z,21.08
2024-01-09T09:32:08.804Z,24.00
2024-01-09T09:34:36.060Z,23.90
2024-01-09T09:37:03.123Z,22.75
2024-01-09T09:39:30.111Z,25.48
2024-01-09T09:41:59.774Z,20.10
2024-01-09T09:44:27.664Z,23.45
2024-01-09T09:46:58.744Z,23.60
2024-01-09T09:49:25.979Z,20.90
2024-01-09T09:51:53.674Z,21.38
2024-01-09T09:54:23.228Z,25.88
2024-01-09T09:56:51.745Z,26.05
2024-01-09T09:59:18.807Z,25.30
2024-01-09T10:01:46.924Z,23.05
2024-01-09T10:04:14.044Z,26.13
2024-01-09T10:06:43.261Z,26.88
2024-01-09T10:09:15.231Z,28.25
2024-01-09T10:11:42.391Z,24.50
2024-01-09T10:14:11.709Z,29.70
2024-01-09T10:16:51.243Z,26.58
2024-01-09T10:19:18.796Z,30.33
2024-01-09T10:21:48.499Z,25.65
2024-01-09T10:24:15.992Z,29.95
2024-01-09T10:26:44.105Z,29.00
2024-01-09T10:29:11.986Z,27.00
2024-01-09T10:31:42.194Z,26.05
2024-01-09T10:34:09.983Z,23.88
2024-01-09T10:36:37.700Z,29.67
2024-01-09T10:39:08.449Z,29.38
2024-01-09T10:41:37.972Z,28.40
2024-01-09T10:44:07.379Z,25.35
2024-01-09T10:46:36.597Z,26.67
2024-01-09T10:49:05.279Z,29.20
2024-01-09T10:51:32.759Z,25.05
2024-01-09T10:54:00.852Z,27.30
2024-01-09T10:56:30.142Z,25.60
2024-01-09T10:58:59.155Z,27.65
2024-01-09T11:01:27.220Z,26.40
2024-01-09T11:03:54.493Z,29.17
2024-01-09T11:06:23.170Z,29.13
2024-01-09T11:08:52.058Z,28.73
2024-01-09T11:11:20.111Z,31.27
2024-01-09T11:13:48.921Z,28.48
2024-01-09T11:16:17.270Z,31.15
2024-01-09T11:18:45.082Z,29.23
2024-01-09T11:21:13.118Z,28.00
2024-01-09T11:23:56.401Z,29.55
2024-01-09T11:26:24.624Z,36.65
2024-01-09T11:28:51.672Z,26.58
2024-01-09T11:31:22.050Z,29.38
2024-01-09T11:33:50.020Z,30.35
2024-01-09T11:36:22.338Z,28.40
2024-01-09T11:38:49.810Z,29.42
2024-01-09T11:41:16.867Z,29.35
2024-01-09T11:44:03.417Z,26.45
2024-01-09T11:46:37.388Z,30.58
2024-01-09T11:49:07.013Z,27.58
2024-01-09T11:51:37.527Z,27.95
2024-01-09T11:54:05.685Z,26.15
2024-01-09T11:56:33.198Z,29.00
2024-01-09T11:59:01.655Z,26.77
2024-01-09T12:01:28.641Z,28.95
2024-01-09T12:03:57.076Z,28.08
2024-01-09T12:06:25.285Z,27.58
2024-01-09T12:08:56.451Z,26.90
2024-01-09T12:13:59.112Z,26.35
2024-01-09T12:16:26.234Z,27.40
2024-01-09T12:18:57.727Z,28.88
2024-01-09T12:21:26.626Z,29.25
2024-01-09T12:26:32.529Z,27.25
2024-01-09T12:29:00.518Z,28.88
2024-01-09T12:31:30.950Z,26.48
2024-01-09T12:34:00.755Z,28.98
2024-01-09T12:36:29.791Z,29.40
2024-01-09T12:38:57.910Z,27.95
2024-01-09T12:41:25.491Z,29.08
2024-01-09T12:43:53.805Z,29.38
2024-01-09T12:46:22.188Z,25.73
2024-01-09T12:48:51.183Z,29.67
2024-01-09T12:51:19.952Z,28.10
2024-01-09T12:53:47.816Z,25.67
2024-01-09T12:56:16.012Z,29.70
2024-01-09T12:58:46.573Z,26.77
2024-01-09T13:01:14.244Z,25.90
2024-01-09T13:03:42.133Z,28.00
2024-01-09T13:06:12.522Z,27.35
2024-01-09T13:08:40.275Z,22.77
2024-01-09T13:11:09.007Z,24.80
2024-01-09T13:13:36.631Z,25.92
2024-01-09T13:16:04.963Z,25.10
2024-01-09T13:18:32.474Z,25.02
2024-01-09T13:20:59.878Z,26.48
2024-01-09T13:23:48.206Z,27.73
2024-01-09T13:26:13.765Z,28.00
2024-01-09T13:30:42.907Z,28.98
2024-01-09T13:31:29.427Z,31.30
2024-01-09T13:33:58.774Z,28.60
2024-01-09T13:36:25.796Z,29.33
2024-01-09T13:38:52.994Z,28.20
2024-01-09T13:41:20.730Z,31.13
2024-01-09T13:43:49.517Z,30.98
2024-01-09T13:46:17.801Z,40.72
2024-01-09T13:48:47.814Z,47.20
2024-01-09T13:53:45.857Z,32.55
2024-01-09T13:56:12.855Z,30.00
2024-01-09T13:58:39.928Z,31.40
2024-01-09T14:01:07.055Z,33.10
2024-01-09T14:03:34.137Z,28.48
2024-01-09T14:06:01.220Z,26.52
2024-01-09T14:08:29.252Z,28.15
2024-01-09T14:10:56.325Z,24.05
2024-01-09T14:13:23.415Z,21.20
2024-01-09T14:15:53.309Z,24.05
2024-01-09T14:18:20.526Z,27.00
2024-01-09T14:20:47.453Z,25.88
2024-01-09T14:23:14.523Z,24.35
2024-01-09T14:25:42.539Z,23.88
2024-01-09T14:28:09.526Z,26.17
2024-01-09T14:30:36.527Z,27.90
2024-01-09T14:33:03.845Z,23.08
2024-01-09T14:35:31.004Z,21.83
2024-01-09T14:37:59.485Z,22.63
2024-01-09T14:40:30.157Z,21.38
2024-01-09T14:43:00.040Z,22.85
2024-01-09T14:45:27.100Z,24.00
2024-01-09T14:47:54.153Z,22.10
2024-01-09T14:50:21.369Z,23.00
2024-01-09T14:52:48.462Z,21.08
2024-01-09T14:55:15.687Z,24.85
2024-01-09T14:57:42.662Z,20.88
2024-01-09T15:00:12.403Z,24.65
2024-01-09T15:02:39.567Z,21.95
2024-01-09T15:05:06.734Z,22.50
2024-01-09T15:07:33.905Z,23.90
2024-01-09T15:10:01.037Z,20.27
2024-01-09T15:12:31.341Z,23.52
2024-01-09T15:15:00.035Z,24.38
2024-01-09T15:17:27.033Z,25.10
2024-01-09T15:19:54.340Z,23.35
2024-01-09T15:22:21.301Z,26.67
2024-01-09T15:24:48.747Z,23.33
2024-01-09T15:27:15.735Z,25.60
2024-01-09T15:29:42.966Z,27.25
2024-01-09T15:32:10.169Z,28.52
2024-01-09T15:34:38.339Z,29.00
2024-01-09T15:37:05.353Z,36.40
2024-01-09T15:39:32.952Z,28.65
2024-01-09T15:42:00.034Z,26.48
2024-01-09T15:44:27.001Z,20.05
2024-01-09T15:46:55.449Z,19.02
2024-01-09T15:49:22.780Z,25.25
2024-01-09T15:51:50.091Z,24.13
2024-01-09T15:54:17.004Z,24.45
2024-01-09T15:56:46.270Z,21.55
2024-01-09T15:59:13.227Z,23.17
2024-01-09T16:01:40.276Z,24.15
2024-01-09T16:04:07.763Z,28.67
2024-01-09T16:06:35.573Z,24.52
2024-01-09T16:09:05.055Z,23.98
2024-01-09T16:11:32.037Z,26.63
2024-01-09T16:13:58.979Z,21.88
2024-01-09T16:16:26.013Z,28.85
2024-01-09T16:18:54.862Z,25.20
2024-01-09T16:21:21.863Z,23.63
2024-01-09T16:23:49.562Z,24.77
2024-01-09T16:26:16.763Z,24.80
2024-01-09T16:28:43.941Z,22.40
2024-01-09T16:31:12.255Z,23.88
2024-01-09T16:33:40.643Z,24.55
2024-01-09T16:36:08.442Z,18.05
2024-01-09T16:38:35.387Z,21.08
2024-01-09T16:41:05.529Z,21.98
2024-01-09T16:43:32.940Z,22.00
2024-01-09T16:45:59.939Z,25.77
2024-01-09T16:48:32.307Z,27.83
2024-01-09T16:51:06.372Z,26.13
2024-01-09T16:53:33.998Z,23.30
2024-01-09T16:56:01.186Z,17.13
2024-01-09T16:58:31.167Z,18.50
2024-01-09T17:00:58.151Z,22.25
2024-01-09T17:03:27.052Z,21.45
2024-01-09T17:05:54.142Z,20.73
2024-01-09T17:08:21.411Z,18.65
2024-01-09T17:10:48.469Z,21.23
2024-01-09T17:13:19.407Z,18.08
2024-01-09T17:15:46.457Z,19.60
2024-01-09T17:18:13.418Z,19.50
2024-01-09T17:20:40.362Z,17.85
2024-01-09T17:23:10.444Z,19.13
2024-01-09T17:25:38.165Z,17.70
2024-01-09T17:28:05.677Z,20.17
2024-01-09T17:30:32.810Z,17.92
2024-01-09T17:33:00.978Z,21.02
2024-01-09T17:35:27.943Z,18.13
2024-01-09T17:37:54.970Z,17.73
2024-01-09T17:40:22.255Z,18.30
2024-01-09T17:42:49.229Z,18.42
2024-01-09T17:45:17.967Z,19.85
2024-01-09T17:47:45.031Z,17.83
2024-01-09T17:50:12.195Z,17.23
2024-01-09T17:52:39.342Z,19.63
2024-01-09T17:55:06.310Z,17.77
2024-01-09T17:57:33.241Z,20.95
2024-01-09T18:00:02.240Z,18.45
2024-01-09T18:02:29.279Z,16.38
2024-01-09T18:04:56.322Z,17.65
2024-01-09T18:07:23.451Z,19.55
2024-01-09T18:09:50.747Z,18.77
2024-01-09T18:12:17.678Z,16.77
2024-01-09T18:14:44.742Z,19.65
2024-01-09T18:17:12.965Z,17.60
2024-01-09T18:19:40.049Z,18.98
2024-01-09T18:22:07.136Z,21.52
2024-01-09T18:24:34.271Z,20.75
2024-01-09T18:27:04.320Z,22.80
2024-01-09T18:29:33.313Z,19.92
2024-01-09T18:32:00.461Z,17.83
2024-01-09T18:34:28.308Z,18.52
2024-01-09T18:36:55.469Z,21.45
2024-01-09T18:39:25.011Z,18.67
2024-01-09T18:41:58.842Z,17.67
2024-01-09T18:44:29.659Z,18.15
2024-01-09T18:46:56.850Z,18.27
2024-01-09T18:49:25.044Z,15.32
2024-01-09T18:51:52.012Z,16.08
2024-01-09T18:54:19.603Z,15.45
2024-01-09T18:56:48.799Z,15.20
2024-01-09T18:59:17.729Z,15.18
2024-01-09T19:01:45.004Z,15.80
2024-01-09T19:04:12.205Z,17.75
2024-01-09T19:06:39.404Z,18.48
2024-01-09T19:09:13.619Z,16.90
2024-01-09T19:11:40.913Z,17.45
2024-01-09T19:14:11.995Z,17.60
2024-01-09T19:16:46.830Z,15.52
2024-01-09T19:19:16.748Z,16.55
2024-01-09T19:21:50.100Z,18.77
2024-01-09T19:24:18.273Z,19.38
2024-01-09T19:26:45.640Z,17.88
2024-01-09T19:29:13.122Z,16.38
2024-01-09T19:31:43.928Z,17.70
2024-01-09T19:34:11.625Z,18.27
2024-01-09T19:36:39.072Z,17.63
2024-01-09T19:39:06.624Z,18.50
2024-01-09T19:41:33.569Z,16.13
2024-01-09T19:44:00.630Z,18.10
2024-01-09T19:46:27.611Z,20.20
2024-01-09T19:48:54.564Z,18.40
2024-01-09T19:51:21.698Z,21.08
2024-01-09T19:53:48.621Z,18.50
2024-01-09T19:56:25.981Z,19.40
2024-01-09T19:58:52.999Z,18.15
2024-01-09T20:01:20.030Z,18.63
2024-01-09T20:03:48.528Z,17.95
2024-01-09T20:06:19.679Z,17.27
2024-01-09T20:11:21.557Z,18.58
2024-01-09T20:13:48.677Z,18.40
2024-01-09T20:16:15.691Z,20.25
2024-01-09T20:18:42.747Z,19.38
2024-01-09T20:21:10.748Z,17.67
2024-01-09T20:23:37.691Z,20.30
2024-01-09T20:26:04.830Z,20.67
2024-01-09T20:28:31.859Z,22.30
2024-01-09T20:30:58.894Z,18.98
2024-01-09T20:33:26.350Z,21.25
2024-01-09T20:35:57.415Z,21.35
2024-01-09T20:38:25.855Z,17.92
2024-01-09T20:40:53.845Z,17.17
2024-01-09T20:43:20.774Z,18.52
2024-01-09T20:45:49.163Z,22.35
2024-01-09T20:48:16.103Z,16.83
2024-01-09T20:50:43.194Z,15.55
2024-01-09T20:53:10.615Z,14.20
2024-01-09T20:55:37.705Z,14.70
2024-01-09T20:58:07.089Z,15.88
2024-01-09T21:00:34.038Z,16.42
2024-01-09T21:03:03.916Z,17.08
2024-01-09T21:05:35.340Z,16.10
2024-01-09T21:08:06.048Z,14.70
2024-01-09T21:10:33.219Z,16.95
2024-01-09T21:13:00.463Z,18.08
2024-01-09T21:15:27.800Z,20.73
2024-01-09T21:17:54.908Z,17.45
2024-01-09T21:20:22.145Z,19.08
2024-01-09T21:22:49.690Z,20.90
2024-01-09T21:25:16.661Z,19.52
2024-01-09T21:27:43.850Z,18.20
2024-01-09T21:30:11.886Z,17.10
2024-01-09T21:32:39.213Z,17.27
2024-01-09T21:35:06.900Z,15.20
2024-01-09T21:37:34.812Z,15.93
2024-01-09T21:40:03.112Z,14.60
2024-01-09T21:42:30.114Z,14.90
2024-01-09T21:44:57.079Z,16.15
2024-01-09T21:47:24.163Z,15.45
2024-01-09T21:49:51.285Z,16.02
2024-01-09T21:52:18.290Z,15.55
2024-01-09T21:54:45.210Z,18.05
2024-01-09T21:57:12.219Z,17.52
2024-01-09T21:59:39.597Z,18.15
2024-01-09T22:02:07.046Z,17.08
2024-01-09T22:04:34.400Z,16.83
2024-01-09T22:07:02.245Z,16.25
2024-01-09T22:09:29.192Z,14.80
2024-01-09T22:11:57.358Z,16.38
2024-01-09T22:14:24.436Z,16.48
2024-01-09T22:16:51.422Z,17.15
2024-01-09T22:19:18.525Z,17.52
2024-01-09T22:21:46.176Z,17.50
2024-01-09T22:24:14.024Z,16.73
2024-01-09T22:26:44.226Z,17.08
2024-01-09T22:29:11.407Z,13.98
2024-01-09T22:31:38.567Z,13.52
2024-01-09T22:34:05.680Z,15.05
2024-01-09T22:36:32.978Z,14.00
2024-01-09T22:39:00.024Z,14.63
2024-01-09T22:41:27.006Z,15.30
2024-01-09T22:43:54.380Z,15.02
2024-01-09T22:46:21.329Z,14.32
2024-01-09T22:48:48.558Z,12.55
2024-01-09T22:51:15.477Z,14.27
2024-01-09T22:53:43.498Z,13.30
2024-01-09T22:56:16.991Z,13.63
2024-01-09T22:58:44.940Z,14.73
2024-01-09T23:01:12.872Z,13.68
2024-01-09T23:03:40.053Z,15.98
2024-01-09T23:06:07.208Z,18.23
2024-01-09T23:08:34.242Z,13.88
2024-01-09T23:11:02.438Z,14.88
2024-01-09T23:13:29.402Z,13.93
2024-01-09T23:15:56.381Z,14.25
2024-01-09T23:18:23.454Z,13.63
2024-01-09T23:20:50.420Z,14.15
2024-01-09T23:23:17.578Z,12.98
2024-01-09T23:25:44.972Z,13.57
2024-01-09T23:28:12.022Z,13.63
2024-01-09T23:30:38.964Z,12.73
2024-01-09T23:33:08.102Z,12.63
2024-01-09T23:35:35.265Z,12.80
2024-01-09T23:38:02.332Z,12.63
2024-01-09T23:40:31.741Z,14.43
2024-01-09T23:42:58.784Z,11.30
2024-01-09T23:45:25.731Z,11.57
2024-01-09T23:47:53.563Z,13.23
2024-01-09T23:50:20.703Z,14.77
2024-01-09T23:52:47.813Z,17.80
2024-01-09T23:55:14.817Z,12.90
2024-01-09T23:57:42.902Z,14.40
